Time,TemperatureF,DewpointF,PressureIn,WindDirection,WindDirectionDegrees,WindSpeedMPH,WindSpeedGustMPH,Humidity,HourlyPrecipIn,Conditions,Clouds,dailyrainin,SoftwareType,DateUTC
2013-04-21 00:01:00,35.0,19.0,29.85,SSW,212,1.0,1.0,51,0.00,,,0.00,,2013-04-21 07:01:00,
2013-04-21 00:11:00,34.0,19.0,29.85,SSW,206,1.0,2.0,53,0.00,,,0.00,,2013-04-21 07:11:00,
2013-04-21 00:21:00,34.0,19.0,29.85,SSW,206,1.0,2.0,53,0.00,,,0.00,,2013-04-21 07:21:00,
2013-04-21 00:31:00,34.0,19.0,29.85,SW,215,1.0,2.0,53,0.00,,,0.00,,2013-04-21 07:31:00,
2013-04-21 00:41:00,34.0,19.0,29.85,SW,215,1.0,2.0,53,0.00,,,0.00,,2013-04-21 07:41:00,
2013-04-21 00:52:00,33.0,18.0,29.85,SE,135,1.0,1.0,54,0.00,,,0.00,,2013-04-21 07:52:00,
2013-04-21 01:01:00,33.0,19.0,29.85,SE,130,1.0,1.0,56,0.00,,,0.00,,2013-04-21 08:01:00,
2013-04-21 01:11:00,33.0,19.0,29.85,SSE,149,1.0,1.0,56,0.00,,,0.00,,2013-04-21 08:11:00,
2013-04-21 01:21:00,33.0,19.0,29.85,SSE,149,1.0,1.0,56,0.00,,,0.00,,2013-04-21 08:21:00,
2013-04-21 01:31:00,32.0,18.0,29.85,SW,216,1.0,1.0,56,0.00,,,0.00,,2013-04-21 08:31:00,
2013-04-21 01:41:00,32.0,18.0,29.85,SW,216,1.0,1.0,56,0.00,,,0.00,,2013-04-21 08:41:00,
2013-04-21 01:52:00,32.0,19.0,29.85,ESE,113,0.0,1.0,57,0.00,,,0.00,,2013-04-21 08:52:00,
2013-04-21 02:01:00,31.0,18.0,29.85,SE,143,1.0,1.0,58,0.00,,,0.00,,2013-04-21 09:01:00,
2013-04-21 02:11:00,31.0,18.0,29.85,SE,143,1.0,1.0,58,0.00,,,0.00,,2013-04-21 09:11:00,
2013-04-21 02:21:00,31.0,18.0,29.84,South,180,0.0,0.0,59,0.00,,,0.00,,2013-04-21 09:21:00,
2013-04-21 02:32:00,30.0,18.0,29.84,West,270,0.0,0.0,60,0.00,,,0.00,,2013-04-21 09:32:00,
2013-04-21 02:42:00,30.0,18.0,29.84,West,270,0.0,0.0,60,0.00,,,0.00,,2013-04-21 09:42:00,
2013-04-21 02:53:00,30.0,18.0,29.84,NNE,25,1.0,1.0,61,0.00,,,0.00,,2013-04-21 09:53:00,
2013-04-21 03:02:00,29.0,18.0,29.84,North,0,0.0,1.0,62,0.00,,,0.00,,2013-04-21 10:02:00,
2013-04-21 03:12:00,29.0,18.0,29.83,South,180,0.0,1.0,62,0.00,,,0.00,,2013-04-21 10:12:00,
2013-04-21 03:22:00,29.0,18.0,29.83,South,180,0.0,1.0,62,0.00,,,0.00,,2013-04-21 10:22:00,
2013-04-21 03:32:00,28.0,17.0,29.84,SE,135,0.0,1.0,62,0.00,,,0.00,,2013-04-21 10:32:00,
2013-04-21 03:42:00,28.0,17.0,29.84,SE,135,0.0,1.0,62,0.00,,,0.00,,2013-04-21 10:42:00,
2013-04-21 03:52:00,28.0,17.0,29.84,WSW,248,0.0,0.0,63,0.00,,,0.00,,2013-04-21 10:52:00,
2013-04-21 04:02:00,28.0,17.0,29.83,SSW,203,0.0,1.0,64,0.00,,,0.00,,2013-04-21 11:02:00,
2013-04-21 04:11:00,28.0,17.0,29.83,SSW,203,0.0,1.0,64,0.00,,,0.00,,2013-04-21 11:11:00,
2013-04-21 04:22:00,28.0,17.0,29.83,North,0,1.0,1.0,64,0.00,,,0.00,,2013-04-21 11:22:00,
2013-04-21 04:33:00,28.0,18.0,29.83,NNE,23,0.0,0.0,65,0.00,,,0.00,,2013-04-21 11:33:00,
2013-04-21 04:42:00,28.0,18.0,29.83,NNE,23,0.0,0.0,65,0.00,,,0.00,,2013-04-21 11:42:00,
2013-04-21 04:52:00,27.0,17.0,29.84,North,0,0.0,1.0,65,0.00,,,0.00,,2013-04-21 11:52:00,
2013-04-21 05:02:00,27.0,17.0,29.83,North,0,0.0,0.0,65,0.00,,,0.00,,2013-04-21 12:02:00,
2013-04-21 05:12:00,26.0,17.0,29.83,North,0,0.0,0.0,67,0.00,,,0.00,,2013-04-21 12:12:00,
2013-04-21 05:22:00,26.0,17.0,29.83,North,0,0.0,0.0,67,0.00,,,0.00,,2013-04-21 12:22:00,
2013-04-21 05:31:00,26.0,17.0,29.83,South,180,0.0,1.0,68,0.00,,,0.00,,2013-04-21 12:31:00,
2013-04-21 05:42:00,26.0,17.0,29.83,South,180,0.0,1.0,68,0.00,,,0.00,,2013-04-21 12:42:00,
2013-04-21 05:52:00,26.0,17.0,29.84,North,0,0.0,0.0,68,0.00,,,0.00,,2013-04-21 12:52:00,
2013-04-21 06:01:00,26.0,17.0,29.83,North,0,0.0,0.0,68,0.00,,,0.00,,2013-04-21 13:01:00,
2013-04-21 06:11:00,26.0,17.0,29.84,South,180,0.0,0.0,69,0.00,,,0.00,,2013-04-21 13:11:00,
2013-04-21 06:21:00,26.0,17.0,29.84,South,180,0.0,0.0,69,0.00,,,0.00,,2013-04-21 13:21:00,
2013-04-21 06:32:00,25.0,16.0,29.84,SSE,158,0.0,0.0,69,0.00,,,0.00,,2013-04-21 13:32:00,
2013-04-21 06:42:00,25.0,16.0,29.84,SSE,158,0.0,0.0,69,0.00,,,0.00,,2013-04-21 13:42:00,
2013-04-21 06:52:00,25.0,17.0,29.85,NNE,33,1.0,1.0,70,0.00,,,0.00,,2013-04-21 13:52:00,
2013-04-21 07:01:00,26.0,18.0,29.85,East,90,0.0,0.0,71,0.00,,,0.00,,2013-04-21 14:01:00,
2013-04-21 07:11:00,26.0,18.0,29.85,East,90,0.0,0.0,71,0.00,,,0.00,,2013-04-21 14:11:00,
2013-04-21 07:21:00,32.0,23.0,29.85,NNE,23,0.0,0.0,70,0.00,,,0.00,,2013-04-21 14:21:00,
2013-04-21 07:31:00,36.0,26.0,29.85,North,0,0.0,0.0,66,0.00,,,0.00,,2013-04-21 14:31:00,
2013-04-21 08:01:00,41.0,27.0,29.85,North,0,0.0,3.0,57,0.00,,,0.00,,2013-04-21 15:01:00,
2013-04-21 08:33:00,45.0,27.0,29.85,North,1,2.0,3.0,49,0.00,,,0.00,,2013-04-21 15:33:00,
2013-04-21 08:53:00,48.0,27.0,29.86,NE,38,4.0,6.0,44,0.00,,,0.00,,2013-04-21 15:53:00,
2013-04-21 09:03:00,49.0,25.0,29.86,North,2,5.0,7.0,38,0.00,,,0.00,,2013-04-21 16:03:00,
2013-04-21 09:22:00,51.0,23.0,29.85,NNE,25,6.0,9.0,33,0.00,,,0.00,,2013-04-21 16:22:00,
2013-04-21 09:32:00,52.0,22.0,29.85,North,7,6.0,13.0,31,0.00,,,0.00,,2013-04-21 16:32:00,
2013-04-21 09:52:00,54.0,22.0,29.85,North,4,6.0,8.0,28,0.00,,,0.00,,2013-04-21 16:52:00,
2013-04-21 10:01:00,55.0,23.0,29.84,NNE,21,4.0,9.0,28,0.00,,,0.00,,2013-04-21 17:01:00,
2013-04-21 10:12:00,56.0,22.0,29.85,NNE,23,9.0,10.0,26,0.00,,,0.00,,2013-04-21 17:12:00,
2013-04-21 10:22:00,56.0,22.0,29.85,NNE,23,9.0,10.0,26,0.00,,,0.00,,2013-04-21 17:22:00,
2013-04-21 10:32:00,57.0,23.0,29.84,NNE,23,7.0,9.0,27,0.00,,,0.00,,2013-04-21 17:32:00,
2013-04-21 10:52:00,58.0,21.0,29.84,North,0,3.0,14.0,24,0.00,,,0.00,,2013-04-21 17:52:00,
2013-04-21 11:02:00,59.0,21.0,29.84,North,0,5.0,5.0,23,0.00,,,0.00,,2013-04-21 18:02:00,
2013-04-21 11:11:00,59.0,21.0,29.84,North,0,5.0,5.0,23,0.00,,,0.00,,2013-04-21 18:11:00,
2013-04-21 11:21:00,60.0,21.0,29.84,North,0,6.0,9.0,22,0.00,,,0.00,,2013-04-21 18:21:00,
2013-04-21 11:32:00,60.0,21.0,29.84,NNE,15,3.0,14.0,22,0.01,,,0.01,,2013-04-21 18:32:00,
2013-04-21 11:42:00,60.0,21.0,29.84,NNE,15,3.0,14.0,22,0.01,,,0.01,,2013-04-21 18:42:00,
2013-04-21 11:52:00,61.0,21.0,29.84,NE,45,6.0,12.0,21,0.01,,,0.01,,2013-04-21 18:52:00,
2013-04-21 12:02:00,62.0,22.0,29.83,NNE,22,4.0,11.0,21,0.01,,,0.01,,2013-04-21 19:02:00,
2013-04-21 12:21:00,63.0,24.0,29.82,SSE,152,3.0,10.0,22,0.01,,,0.01,,2013-04-21 19:21:00,
2013-04-21 12:31:00,63.0,24.0,29.82,North,5,13.0,15.0,22,0.00,,,0.01,,2013-04-21 19:31:00,
2013-04-21 12:52:00,63.0,22.0,29.82,North,352,7.0,12.0,21,0.00,,,0.01,,2013-04-21 19:52:00,
2013-04-21 13:01:00,63.0,24.0,29.81,North,353,2.0,9.0,22,0.00,,,0.01,,2013-04-21 20:01:00,
2013-04-21 13:21:00,65.0,24.0,29.80,WSW,237,5.0,12.0,21,0.00,,,0.01,,2013-04-21 20:21:00,
2013-04-21 13:31:00,65.0,22.0,29.80,West,281,5.0,9.0,19,0.00,,,0.01,,2013-04-21 20:31:00,
2013-04-21 13:52:00,64.0,20.0,29.80,NNE,16,7.0,17.0,18,0.00,,,0.01,,2013-04-21 20:52:00,
2013-04-21 14:01:00,65.0,23.0,29.79,SW,225,4.0,7.0,20,0.00,,,0.01,,2013-04-21 21:01:00,
2013-04-21 14:12:00,66.0,23.0,29.78,West,271,1.0,13.0,19,0.00,,,0.01,,2013-04-21 21:12:00,
2013-04-21 14:21:00,66.0,23.0,29.78,West,271,1.0,13.0,19,0.00,,,0.01,,2013-04-21 21:21:00,
2013-04-21 14:32:00,67.0,23.0,29.79,SW,222,5.0,10.0,19,0.00,,,0.01,,2013-04-21 21:32:00,
2013-04-21 14:43:00,67.0,23.0,29.79,SW,222,5.0,10.0,19,0.00,,,0.01,,2013-04-21 21:43:00,
2013-04-21 14:53:00,67.0,23.0,29.79,SW,222,5.0,10.0,19,0.00,,,0.01,,2013-04-21 21:53:00,
2013-04-21 15:33:00,67.0,21.0,29.76,NNE,30,7.0,9.0,17,0.00,,,0.01,,2013-04-21 22:33:00,
2013-04-21 15:43:00,67.0,21.0,29.76,NNE,30,7.0,9.0,17,0.00,,,0.01,,2013-04-21 22:43:00,
2013-04-21 15:52:00,67.0,21.0,29.75,NE,45,6.0,9.0,17,0.00,,,0.01,,2013-04-21 22:52:00,
2013-04-21 16:02:00,66.0,21.0,29.76,NNW,335,5.0,9.0,18,0.00,,,0.01,,2013-04-21 23:02:00,
2013-04-21 16:11:00,66.0,21.0,29.76,NNW,335,5.0,9.0,18,0.00,,,0.01,,2013-04-21 23:11:00,
2013-04-21 16:22:00,66.0,21.0,29.75,South,180,3.0,5.0,18,0.00,,,0.01,,2013-04-21 23:22:00,
2013-04-21 16:32:00,67.0,21.0,29.75,NNW,333,5.0,17.0,17,0.00,,,0.01,,2013-04-21 23:32:00,
2013-04-21 16:42:00,67.0,21.0,29.75,NNW,333,5.0,17.0,17,0.00,,,0.01,,2013-04-21 23:42:00,
2013-04-21 16:52:00,65.0,19.0,29.74,North,359,9.0,22.0,17,0.00,,,0.01,,2013-04-21 23:52:00,
2013-04-21 17:01:00,66.0,20.0,29.74,WSW,248,2.0,8.0,17,0.00,,,0.01,,2013-04-22 00:01:00,
2013-04-21 17:11:00,66.0,20.0,29.74,WSW,248,2.0,8.0,17,0.00,,,0.01,,2013-04-22 00:11:00,
2013-04-21 17:21:00,66.0,20.0,29.74,North,355,4.0,7.0,17,0.00,,,0.01,,2013-04-22 00:21:00,
2013-04-21 17:31:00,66.0,20.0,29.74,NNW,348,5.0,7.0,17,0.00,,,0.01,,2013-04-22 00:31:00,
2013-04-21 17:42:00,66.0,20.0,29.74,NNW,348,5.0,7.0,17,0.00,,,0.01,,2013-04-22 00:42:00,
2013-04-21 17:51:00,66.0,20.0,29.74,NW,323,6.0,9.0,17,0.00,,,0.01,,2013-04-22 00:51:00,
2013-04-21 18:01:00,64.0,20.0,29.74,NW,322,6.0,9.0,18,0.00,,,0.01,,2013-04-22 01:01:00,
2013-04-21 18:11:00,64.0,20.0,29.74,NW,322,6.0,9.0,18,0.00,,,0.01,,2013-04-22 01:11:00,
2013-04-21 18:21:00,64.0,20.0,29.74,NNW,338,8.0,13.0,18,0.00,,,0.01,,2013-04-22 01:21:00,
2013-04-21 18:32:00,62.0,19.0,29.74,West,268,3.0,8.0,19,0.00,,,0.01,,2013-04-22 01:32:00,
2013-04-21 18:41:00,62.0,19.0,29.74,West,268,3.0,8.0,19,0.00,,,0.01,,2013-04-22 01:41:00,
2013-04-21 18:51:00,62.0,19.0,29.74,SW,233,4.0,7.0,19,0.00,,,0.01,,2013-04-22 01:51:00,
2013-04-21 19:01:00,61.0,18.0,29.73,NNW,348,4.0,6.0,19,0.00,,,0.01,,2013-04-22 02:01:00,
2013-04-21 19:11:00,61.0,20.0,29.73,North,0,5.0,10.0,20,0.00,,,0.01,,2013-04-22 02:11:00,
2013-04-21 19:21:00,61.0,20.0,29.73,North,0,5.0,10.0,20,0.00,,,0.01,,2013-04-22 02:21:00,
2013-04-21 19:31:00,59.0,19.0,29.74,West,266,4.0,8.0,21,0.00,,,0.01,,2013-04-22 02:31:00,
2013-04-21 19:41:00,59.0,19.0,29.74,West,266,4.0,8.0,21,0.00,,,0.01,,2013-04-22 02:41:00,
2013-04-21 19:51:00,58.0,19.0,29.74,West,262,4.0,5.0,22,0.00,,,0.01,,2013-04-22 02:51:00,
2013-04-21 20:02:00,57.0,19.0,29.75,WSW,239,2.0,5.0,22,0.00,,,0.01,,2013-04-22 03:02:00,
2013-04-21 20:11:00,57.0,19.0,29.75,WSW,239,2.0,5.0,22,0.00,,,0.01,,2013-04-22 03:11:00,
2013-04-21 20:22:00,56.0,19.0,29.75,WSW,237,2.0,3.0,23,0.00,,,0.01,,2013-04-22 03:22:00,
2013-04-21 20:33:00,55.0,19.0,29.76,SW,219,1.0,4.0,24,0.00,,,0.01,,2013-04-22 03:33:00,
2013-04-21 20:42:00,55.0,19.0,29.76,SW,219,1.0,4.0,24,0.00,,,0.01,,2013-04-22 03:42:00,
2013-04-21 20:52:00,54.0,18.0,29.77,WSW,250,1.0,2.0,24,0.00,,,0.01,,2013-04-22 03:52:00,
2013-04-21 21:02:00,53.0,17.0,29.77,SSE,165,1.0,5.0,24,0.00,,,0.01,,2013-04-22 04:02:00,
2013-04-21 21:12:00,53.0,17.0,29.77,SSE,165,1.0,5.0,24,0.00,,,0.01,,2013-04-22 04:12:00,
2013-04-21 21:23:00,52.0,17.0,29.77,WSW,246,1.0,1.0,25,0.00,,,0.01,,2013-04-22 04:23:00,
2013-04-21 21:32:00,50.0,17.0,29.79,WSW,250,1.0,3.0,27,0.00,,,0.01,,2013-04-22 04:32:00,
2013-04-21 21:43:00,50.0,17.0,29.79,WSW,250,1.0,3.0,27,0.00,,,0.01,,2013-04-22 04:43:00,
2013-04-21 21:52:00,49.0,18.0,29.79,SSW,203,2.0,3.0,29,0.00,,,0.01,,2013-04-22 04:52:00,
2013-04-21 22:02:00,45.0,18.0,29.80,SSE,164,2.0,3.0,33,0.00,,,0.01,,2013-04-22 05:02:00,
2013-04-21 22:11:00,44.0,17.0,29.80,SSW,194,2.0,4.0,33,0.00,,,0.01,,2013-04-22 05:11:00,
2013-04-21 22:32:00,43.0,18.0,29.80,SSE,155,2.0,3.0,36,0.00,,,0.01,,2013-04-22 05:32:00,
2013-04-21 22:52:00,42.0,18.0,29.80,SE,131,3.0,5.0,38,0.00,,,0.01,,2013-04-22 05:52:00,
2013-04-21 23:02:00,43.0,19.0,29.80,SSW,205,3.0,4.0,37,0.00,,,0.01,,2013-04-22 06:02:00,
2013-04-21 23:11:00,43.0,19.0,29.80,SSW,205,3.0,4.0,37,0.00,,,0.01,,2013-04-22 06:11:00,
2013-04-21 23:21:00,43.0,19.0,29.80,SE,128,5.0,5.0,37,0.00,,,0.01,,2013-04-22 06:21:00,
2013-04-21 23:32:00,42.0,18.0,29.80,South,180,2.0,3.0,37,0.00,,,0.01,,2013-04-22 06:32:00,
2013-04-21 23:41:00,42.0,18.0,29.80,South,180,2.0,3.0,37,0.00,,,0.01,,2013-04-22 06:41:00,
2013-04-21 23:51:00,42.0,18.0,29.80,East,83,1.0,2.0,37,0.00,,,0.01,,2013-04-22 06:51:00,